sensor_id;sensor_type;location;lat;lon;timestamp;pressure;altitude;pressure_sealevel;temperature;humidity
74270;BME280;62754;48.252;11.654;2023-07-29T00:00:52;95876.69;;;16.78;100.00
74270;BME280;62754;48.252;11.654;2023-07-29T00:03:18;95872.78;;;16.82;100.00
74270;BME280;62754;48.252;11.654;2023-07-29T00:05:44;95873.44;;;16.76;100.00
74270;BME280;62754;48.252;11.654;2023-07-29T00:08:14;95881.75;;;16.71;100.00
74270;BME280;62754;48.252;11.654;2023-07-29T00:10:42;95876.38;;;16.64;100.00
74270;BME280;62754;48.252;11.654;2023-07-29T00:13:10;95880.28;;;16.60;100.00
74270;BME280;62754;48.252;11.654;2023-07-29T00:15:36;95877.66;;;16.60;100.00
74270;BME280;62754;48.252;11.654;2023-07-29T00:18:02;95873.13;;;16.54;100.00
74270;BME280;62754;48.252;11.654;2023-07-29T00:20:30;95872.00;;;16.49;100.00
74270;BME280;62754;48.252;11.654;2023-07-29T00:22:56;95869.06;;;16.52;100.00
74270;BME280;62754;48.252;11.654;2023-07-29T00:25:22;95869.06;;;16.52;100.00
74270;BME280;62754;48.252;11.654;2023-07-29T00:27:54;95869.69;;;16.54;100.00
74270;BME280;62754;48.252;11.654;2023-07-29T00:30:20;95868.72;;;16.47;100.00
74270;BME280;62754;48.252;11.654;2023-07-29T00:32:48;95874.91;;;16.46;100.00
74270;BME280;62754;48.252;11.654;2023-07-29T00:35:16;95867.75;;;16.48;100.00
74270;BME280;62754;48.252;11.654;2023-07-29T00:37:45;95858.81;;;16.42;100.00
74270;BME280;62754;48.252;11.654;2023-07-29T00:40:24;95849.25;;;16.35;100.00
74270;BME280;62754;48.252;11.654;2023-07-29T00:42:53;95857.38;;;16.40;100.00
74270;BME280;62754;48.252;11.654;2023-07-29T00:45:19;95853.13;;;16.31;100.00
74270;BME280;62754;48.252;11.654;2023-07-29T00:47:47;95858.03;;;16.26;100.00
74270;BME280;62754;48.252;11.654;2023-07-29T00:50:18;95855.09;;;16.29;100.00
74270;BME280;62754;48.252;11.654;2023-07-29T00:52:44;95863.06;;;16.19;100.00
74270;BME280;62754;48.252;11.654;2023-07-29T00:55:14;95863.53;;;16.14;100.00
74270;BME280;62754;48.252;11.654;2023-07-29T00:57:40;95853.31;;;16.13;100.00
74270;BME280;62754;48.252;11.654;2023-07-29T01:00:09;95851.69;;;16.20;100.00
74270;BME280;62754;48.252;11.654;2023-07-29T01:02:37;95848.94;;;16.13;100.00
74270;BME280;62754;48.252;11.654;2023-07-29T01:05:05;95854.13;;;16.05;100.00
74270;BME280;62754;48.252;11.654;2023-07-29T01:10:43;95846.00;;;16.00;100.00
74270;BME280;62754;48.252;11.654;2023-07-29T01:16:00;95846.00;;;15.92;100.00
74270;BME280;62754;48.252;11.654;2023-07-29T01:18:35;95852.00;;;16.01;100.00
74270;BME280;62754;48.252;11.654;2023-07-29T01:21:07;95841.63;;;16.01;100.00
74270;BME280;62754;48.252;11.654;2023-07-29T01:23:34;95843.56;;;15.99;100.00
74270;BME280;62754;48.252;11.654;2023-07-29T01:26:01;95846.97;;;15.99;100.00
74270;BME280;62754;48.252;11.654;2023-07-29T01:28:26;95847.97;;;15.98;100.00
74270;BME280;62754;48.252;11.654;2023-07-29T01:30:58;95836.91;;;15.96;100.00
74270;BME280;62754;48.252;11.654;2023-07-29T01:33:26;95849.56;;;15.83;100.00
74270;BME280;62754;48.252;11.654;2023-07-29T01:36:03;95846.63;;;15.78;100.00
74270;BME280;62754;48.252;11.654;2023-07-29T01:38:33;95839.47;;;15.72;100.00
74270;BME280;62754;48.252;11.654;2023-07-29T01:41:02;95839.00;;;15.77;100.00
74270;BME280;62754;48.252;11.654;2023-07-29T01:43:33;95840.13;;;15.74;100.00
74270;BME280;62754;48.252;11.654;2023-07-29T01:46:00;95835.75;;;15.66;100.00
74270;BME280;62754;48.252;11.654;2023-07-29T01:48:26;95838.34;;;15.66;100.00
74270;BME280;62754;48.252;11.654;2023-07-29T01:50:54;95826.78;;;15.61;100.00
74270;BME280;62754;48.252;11.654;2023-07-29T01:53:22;95832.66;;;15.63;100.00
74270;BME280;62754;48.252;11.654;2023-07-29T01:55:48;95834.28;;;15.56;100.00
74270;BME280;62754;48.252;11.654;2023-07-29T01:58:13;95832.16;;;15.59;100.00
74270;BME280;62754;48.252;11.654;2023-07-29T02:00:39;95831.66;;;15.56;100.00
74270;BME280;62754;48.252;11.654;2023-07-29T02:03:07;95828.72;;;15.51;100.00
74270;BME280;62754;48.252;11.654;2023-07-29T02:05:35;95828.88;;;15.49;100.00
74270;BME280;62754;48.252;11.654;2023-07-29T02:08:04;95823.00;;;15.47;100.00
74270;BME280;62754;48.252;11.654;2023-07-29T02:10:32;95818.16;;;15.44;100.00
74270;BME280;62754;48.252;11.654;2023-07-29T02:13:00;95818.78;;;15.46;100.00
74270;BME280;62754;48.252;11.654;2023-07-29T02:15:25;95821.25;;;15.48;100.00
74270;BME280;62754;48.252;11.654;2023-07-29T02:17:51;95827.25;;;15.48;100.00
74270;BME280;62754;48.252;11.654;2023-07-29T02:20:19;95813.91;;;15.35;100.00
74270;BME280;62754;48.252;11.654;2023-07-29T02:22:45;95814.03;;;15.34;100.00
74270;BME280;62754;48.252;11.654;2023-07-29T02:25:14;95816.13;;;15.22;100.00
74270;BME280;62754;48.252;11.654;2023-07-29T02:27:39;95816.13;;;15.22;100.00
74270;BME280;62754;48.252;11.654;2023-07-29T02:30:09;95816.09;;;15.14;100.00
74270;BME280;62754;48.252;11.654;2023-07-29T02:32:37;95818.72;;;15.22;100.00
74270;BME280;62754;48.252;11.654;2023-07-29T02:35:05;95820.34;;;15.23;100.00
74270;BME280;62754;48.252;11.654;2023-07-29T02:37:36;95825.88;;;15.28;100.00
74270;BME280;62754;48.252;11.654;2023-07-29T02:40:05;95823.94;;;15.30;100.00
74270;BME280;62754;48.252;11.654;2023-07-29T02:42:33;95819.56;;;15.31;100.00
74270;BME280;62754;48.252;11.654;2023-07-29T02:44:59;95827.63;;;15.19;100.00
74270;BME280;62754;48.252;11.654;2023-07-29T02:47:24;95817.25;;;15.19;100.00
74270;BME280;62754;48.252;11.654;2023-07-29T02:49:52;95832.00;;;15.19;100.00
74270;BME280;62754;48.252;11.654;2023-07-29T02:52:18;95824.88;;;15.13;100.00
74270;BME280;62754;48.252;11.654;2023-07-29T02:54:49;95833.47;;;15.21;100.00
74270;BME280;62754;48.252;11.654;2023-07-29T02:57:14;95832.34;;;15.16;100.00
74270;BME280;62754;48.252;11.654;2023-07-29T02:59:42;95827.75;;;15.10;100.00
74270;BME280;62754;48.252;11.654;2023-07-29T03:02:11;95830.69;;;15.15;100.00
74270;BME280;62754;48.252;11.654;2023-07-29T03:04:39;95831.66;;;15.14;100.00
74270;BME280;62754;48.252;11.654;2023-07-29T03:07:04;95827.75;;;15.10;100.00
74270;BME280;62754;48.252;11.654;2023-07-29T03:09:30;95829.84;;;15.06;100.00
74270;BME280;62754;48.252;11.654;2023-07-29T03:11:56;95824.38;;;15.09;100.00
74270;BME280;62754;48.252;11.654;2023-07-29T03:14:21;95819.22;;;15.17;100.00
74270;BME280;62754;48.252;11.654;2023-07-29T03:16:49;95809.94;;;15.15;100.00
74270;BME280;62754;48.252;11.654;2023-07-29T03:19:15;95809.13;;;15.14;100.00
74270;BME280;62754;48.252;11.654;2023-07-29T03:21:41;95806.03;;;15.11;100.00
74270;BME280;62754;48.252;11.654;2023-07-29T03:24:07;95802.97;;;15.15;100.00
74270;BME280;62754;48.252;11.654;2023-07-29T03:26:32;95814.63;;;15.11;100.00
74270;BME280;62754;48.252;11.654;2023-07-29T03:29:01;95813.81;;;15.11;100.00
74270;BME280;62754;48.252;11.654;2023-07-29T03:31:26;95815.44;;;15.12;100.00
74270;BME280;62754;48.252;11.654;2023-07-29T03:33:52;95813.53;;;15.22;100.00
74270;BME280;62754;48.252;11.654;2023-07-29T03:36:18;95811.75;;;15.22;100.00
74270;BME280;62754;48.252;11.654;2023-07-29T03:38:43;95806.22;;;15.25;100.00
74270;BME280;62754;48.252;11.654;2023-07-29T03:41:09;95791.97;;;15.30;100.00
74270;BME280;62754;48.252;11.654;2023-07-29T03:43:35;95789.56;;;15.36;100.00
74270;BME280;62754;48.252;11.654;2023-07-29T03:46:08;95810.47;;;15.35;100.00
74270;BME280;62754;48.252;11.654;2023-07-29T03:48:35;95828.66;;;15.35;100.00
74270;BME280;62754;48.252;11.654;2023-07-29T03:51:04;95831.91;;;15.37;100.00
74270;BME280;62754;48.252;11.654;2023-07-29T03:53:30;95821.72;;;15.43;100.00
74270;BME280;62754;48.252;11.654;2023-07-29T03:55:58;95814.72;;;15.44;100.00
74270;BME280;62754;48.252;11.654;2023-07-29T03:58:24;95823.63;;;15.41;100.00
74270;BME280;62754;48.252;11.654;2023-07-29T04:00:49;95818.63;;;15.48;100.00
74270;BME280;62754;48.252;11.654;2023-07-29T04:03:22;95820.63;;;15.54;100.00
74270;BME280;62754;48.252;11.654;2023-07-29T04:05:48;95819.81;;;15.61;100.00
74270;BME280;62754;48.252;11.654;2023-07-29T04:08:14;95818.53;;;15.65;100.00
74270;BME280;62754;48.252;11.654;2023-07-29T04:10:40;95817.22;;;15.69;100.00
74270;BME280;62754;48.252;11.654;2023-07-29T04:13:08;95817.25;;;15.78;100.00
74270;BME280;62754;48.252;11.654;2023-07-29T04:15:34;95810.59;;;15.75;100.00
74270;BME280;62754;48.252;11.654;2023-07-29T04:18:02;95806.69;;;15.79;100.00
74270;BME280;62754;48.252;11.654;2023-07-29T04:20:28;95802.47;;;15.78;100.00
74270;BME280;62754;48.252;11.654;2023-07-29T04:22:54;95808.47;;;15.79;100.00
74270;BME280;62754;48.252;11.654;2023-07-29T04:25:20;95798.25;;;15.77;100.00
74270;BME280;62754;48.252;11.654;2023-07-29T04:27:45;95792.09;;;15.78;100.00
74270;BME280;62754;48.252;11.654;2023-07-29T04:30:16;95781.38;;;15.81;100.00
74270;BME280;62754;48.252;11.654;2023-07-29T04:32:44;95787.03;;;15.77;100.00
74270;BME280;62754;48.252;11.654;2023-07-29T04:35:10;95780.53;;;15.81;100.00
74270;BME280;62754;48.252;11.654;2023-07-29T04:37:38;95776.66;;;15.77;100.00
74270;BME280;62754;48.252;11.654;2023-07-29T04:40:06;95774.88;;;15.77;100.00
74270;BME280;62754;48.252;11.654;2023-07-29T04:42:32;95781.22;;;15.75;100.00
74270;BME280;62754;48.252;11.654;2023-07-29T04:44:58;95781.84;;;15.77;100.00
74270;BME280;62754;48.252;11.654;2023-07-29T04:47:26;95778.13;;;15.71;100.00
74270;BME280;62754;48.252;11.654;2023-07-29T04:49:52;95779.91;;;15.70;100.00
74270;BME280;62754;48.252;11.654;2023-07-29T04:52:18;95777.47;;;15.77;100.00
74270;BME280;62754;48.252;11.654;2023-07-29T04:54:44;95775.34;;;15.81;100.00
74270;BME280;62754;48.252;11.654;2023-07-29T04:57:09;95776.50;;;15.86;100.00
74270;BME280;62754;48.252;11.654;2023-07-29T04:59:35;95774.72;;;15.87;100.00
74270;BME280;62754;48.252;11.654;2023-07-29T05:02:01;95769.19;;;15.98;100.00
74270;BME280;62754;48.252;11.654;2023-07-29T05:04:31;95759.41;;;16.08;100.00
74270;BME280;62754;48.252;11.654;2023-07-29T05:06:59;95764.94;;;16.21;100.00
74270;BME280;62754;48.252;11.654;2023-07-29T05:09:27;95767.00;;;16.34;100.00
74270;BME280;62754;48.252;11.654;2023-07-29T05:11:53;95766.16;;;16.49;100.00
74270;BME280;62754;48.252;11.654;2023-07-29T05:14:19;95770.03;;;16.53;100.00
74270;BME280;62754;48.252;11.654;2023-07-29T05:16:44;95763.66;;;16.72;100.00
74270;BME280;62754;48.252;11.654;2023-07-29T05:19:13;95764.44;;;16.89;99.45
74270;BME280;62754;48.252;11.654;2023-07-29T05:21:38;95765.38;;;16.96;98.41
74270;BME280;62754;48.252;11.654;2023-07-29T05:24:07;95762.88;;;17.10;98.00
74270;BME280;62754;48.252;11.654;2023-07-29T05:26:36;95754.38;;;17.17;96.78
74270;BME280;62754;48.252;11.654;2023-07-29T05:29:06;95761.94;;;17.26;96.93
74270;BME280;62754;48.252;11.654;2023-07-29T05:31:32;95756.38;;;17.37;95.86
74270;BME280;62754;48.252;11.654;2023-07-29T05:33:58;95759.59;;;17.39;95.47
74270;BME280;62754;48.252;11.654;2023-07-29T05:36:26;95752.66;;;17.54;95.12
74270;BME280;62754;48.252;11.654;2023-07-29T05:38:52;95763.88;;;17.63;94.84
74270;BME280;62754;48.252;11.654;2023-07-29T05:41:20;95759.81;;;17.83;94.00
74270;BME280;62754;48.252;11.654;2023-07-29T05:43:45;95758.81;;;17.84;92.84
74270;BME280;62754;48.252;11.654;2023-07-29T05:46:16;95757.75;;;17.93;93.36
74270;BME280;62754;48.252;11.654;2023-07-29T05:48:41;95775.13;;;18.01;91.72
74270;BME280;62754;48.252;11.654;2023-07-29T05:51:09;95776.41;;;18.05;92.28
74270;BME280;62754;48.252;11.654;2023-07-29T05:53:38;95774.25;;;18.08;92.71
74270;BME280;62754;48.252;11.654;2023-07-29T05:56:03;95768.50;;;18.13;91.57
74270;BME280;62754;48.252;11.654;2023-07-29T05:58:32;95769.06;;;18.23;91.06
74270;BME280;62754;48.252;11.654;2023-07-29T06:00:58;95772.13;;;18.27;91.36
74270;BME280;62754;48.252;11.654;2023-07-29T06:03:24;95769.19;;;18.30;91.28
74270;BME280;62754;48.252;11.654;2023-07-29T06:05:54;95775.00;;;18.32;91.08
74270;BME280;62754;48.252;11.654;2023-07-29T06:08:20;95775.22;;;18.30;91.00
74270;BME280;62754;48.252;11.654;2023-07-29T06:10:46;95781.94;;;18.39;90.99
74270;BME280;62754;48.252;11.654;2023-07-29T06:13:14;95784.00;;;18.29;91.73
74270;BME280;62754;48.252;11.654;2023-07-29T06:15:39;95773.06;;;18.34;90.82
74270;BME280;62754;48.252;11.654;2023-07-29T06:18:08;95767.09;;;18.40;90.88
74270;BME280;62754;48.252;11.654;2023-07-29T06:20:39;95764.88;;;18.37;91.44
74270;BME280;62754;48.252;11.654;2023-07-29T06:23:08;95762.69;;;18.26;91.41
74270;BME280;62754;48.252;11.654;2023-07-29T06:25:36;95772.25;;;18.33;91.85
74270;BME280;62754;48.252;11.654;2023-07-29T06:28:02;95764.50;;;18.40;91.32
74270;BME280;62754;48.252;11.654;2023-07-29T06:30:28;95771.78;;;18.44;90.93
74270;BME280;62754;48.252;11.654;2023-07-29T06:32:56;95771.75;;;18.52;89.00
74270;BME280;62754;48.252;11.654;2023-07-29T06:35:21;95770.31;;;18.79;87.90
74270;BME280;62754;48.252;11.654;2023-07-29T06:37:49;95776.31;;;18.94;86.80
74270;BME280;62754;48.252;11.654;2023-07-29T06:40:15;95786.22;;;18.99;85.56
74270;BME280;62754;48.252;11.654;2023-07-29T06:42:43;95796.00;;;19.12;85.29
74270;BME280;62754;48.252;11.654;2023-07-29T06:45:11;95785.91;;;19.09;84.21
74270;BME280;62754;48.252;11.654;2023-07-29T06:47:39;95803.75;;;19.05;85.87
74270;BME280;62754;48.252;11.654;2023-07-29T06:50:05;95808.84;;;19.28;83.04
74270;BME280;62754;48.252;11.654;2023-07-29T06:52:33;95804.88;;;19.46;82.86
74270;BME280;62754;48.252;11.654;2023-07-29T06:54:59;95809.75;;;19.49;81.71
74270;BME280;62754;48.252;11.654;2023-07-29T06:57:25;95831.81;;;19.47;82.92
74270;BME280;62754;48.252;11.654;2023-07-29T06:59:51;95859.22;;;19.36;82.88
74270;BME280;62754;48.252;11.654;2023-07-29T07:02:19;95858.13;;;19.16;83.54
74270;BME280;62754;48.252;11.654;2023-07-29T07:04:45;95872.19;;;19.00;86.96
74270;BME280;62754;48.252;11.654;2023-07-29T07:07:11;95871.16;;;18.58;92.54
74270;BME280;62754;48.252;11.654;2023-07-29T07:09:39;95858.41;;;18.40;91.42
74270;BME280;62754;48.252;11.654;2023-07-29T07:12:07;95867.06;;;18.18;94.75
74270;BME280;62754;48.252;11.654;2023-07-29T07:14:36;95853.06;;;18.19;96.74
74270;BME280;62754;48.252;11.654;2023-07-29T07:17:02;95859.59;;;17.92;100.00
74270;BME280;62754;48.252;11.654;2023-07-29T07:19:30;95843.38;;;17.82;100.00
74270;BME280;62754;48.252;11.654;2023-07-29T07:21:58;95833.66;;;17.76;100.00
74270;BME280;62754;48.252;11.654;2023-07-29T07:24:24;95839.19;;;17.73;100.00
74270;BME280;62754;48.252;11.654;2023-07-29T07:26:50;95843.53;;;17.80;100.00
74270;BME280;62754;48.252;11.654;2023-07-29T07:29:18;95858.19;;;17.81;100.00
74270;BME280;62754;48.252;11.654;2023-07-29T07:31:52;95843.78;;;17.93;100.00
74270;BME280;62754;48.252;11.654;2023-07-29T07:34:19;95830.41;;;17.96;100.00
74270;BME280;62754;48.252;11.654;2023-07-29T07:36:50;95819.66;;;17.99;100.00
74270;BME280;62754;48.252;11.654;2023-07-29T07:39:18;95807.19;;;17.87;100.00
74270;BME280;62754;48.252;11.654;2023-07-29T07:41:44;95796.31;;;17.83;100.00
74270;BME280;62754;48.252;11.654;2023-07-29T07:44:15;95794.50;;;17.84;100.00
74270;BME280;62754;48.252;11.654;2023-07-29T07:46:43;95792.38;;;17.87;100.00
74270;BME280;62754;48.252;11.654;2023-07-29T07:49:11;95788.16;;;18.01;100.00
74270;BME280;62754;48.252;11.654;2023-07-29T07:51:37;95786.31;;;18.09;100.00
74270;BME280;62754;48.252;11.654;2023-07-29T07:54:03;95793.59;;;18.14;100.00
74270;BME280;62754;48.252;11.654;2023-07-29T07:56:31;95797.03;;;18.15;100.00
74270;BME280;62754;48.252;11.654;2023-07-29T07:59:00;95786.41;;;18.16;100.00
74270;BME280;62754;48.252;11.654;2023-07-29T08:01:28;95784.56;;;18.39;100.00
74270;BME280;62754;48.252;11.654;2023-07-29T08:03:59;95785.00;;;18.43;100.00
74270;BME280;62754;48.252;11.654;2023-07-29T08:06:25;95791.69;;;18.45;100.00
74270;BME280;62754;48.252;11.654;2023-07-29T08:08:53;95786.72;;;18.50;100.00
74270;BME280;62754;48.252;11.654;2023-07-29T08:11:23;95784.63;;;18.69;100.00
74270;BME280;62754;48.252;11.654;2023-07-29T08:13:51;95782.09;;;18.75;100.00
74270;BME280;62754;48.252;11.654;2023-07-29T08:16:22;95787.22;;;18.83;99.00
74270;BME280;62754;48.252;11.654;2023-07-29T08:18:47;95780.44;;;18.89;96.76
74270;BME280;62754;48.252;11.654;2023-07-29T08:21:13;95784.59;;;18.98;96.46
74270;BME280;62754;48.252;11.654;2023-07-29T08:23:44;95782.25;;;19.03;97.36
74270;BME280;62754;48.252;11.654;2023-07-29T08:26:09;95792.94;;;19.23;97.94
74270;BME280;62754;48.252;11.654;2023-07-29T08:28:37;95788.34;;;19.25;97.19
74270;BME280;62754;48.252;11.654;2023-07-29T08:31:04;95784.56;;;19.63;93.00
74270;BME280;62754;48.252;11.654;2023-07-29T08:33:31;95790.28;;;19.52;92.71
74270;BME280;62754;48.252;11.654;2023-07-29T08:35:57;95791.34;;;19.58;93.29
74270;BME280;62754;48.252;11.654;2023-07-29T08:38:23;95798.19;;;19.59;93.93
74270;BME280;62754;48.252;11.654;2023-07-29T08:43:19;95803.22;;;19.60;93.03
74270;BME280;62754;48.252;11.654;2023-07-29T08:45:48;95800.25;;;19.84;91.45
74270;BME280;62754;48.252;11.654;2023-07-29T08:48:19;95791.84;;;19.89;89.88
74270;BME280;62754;48.252;11.654;2023-07-29T08:50:50;95795.13;;;19.97;91.28
74270;BME280;62754;48.252;11.654;2023-07-29T08:53:17;95796.69;;;20.13;90.80
74270;BME280;62754;48.252;11.654;2023-07-29T08:55:43;95797.38;;;20.22;91.93
74270;BME280;62754;48.252;11.654;2023-07-29T08:58:10;95797.50;;;20.35;88.50
74270;BME280;62754;48.252;11.654;2023-07-29T09:00:38;95802.66;;;20.28;87.41
74270;BME280;62754;48.252;11.654;2023-07-29T09:03:06;95807.19;;;20.41;86.63
74270;BME280;62754;48.252;11.654;2023-07-29T09:05:35;95804.03;;;20.46;88.17
74270;BME280;62754;48.252;11.654;2023-07-29T09:08:06;95796.19;;;20.52;87.31
74270;BME280;62754;48.252;11.654;2023-07-29T09:10:35;95795.75;;;20.76;85.87
74270;BME280;62754;48.252;11.654;2023-07-29T09:13:04;95796.63;;;20.90;87.93
74270;BME280;62754;48.252;11.654;2023-07-29T09:15:35;95786.75;;;21.20;84.00
74270;BME280;62754;48.252;11.654;2023-07-29T09:18:20;95792.25;;;21.45;82.91
74270;BME280;62754;48.252;11.654;2023-07-29T09:20:50;95789.41;;;21.33;82.71
74270;BME280;62754;48.252;11.654;2023-07-29T09:23:21;95793.63;;;22.08;80.99
74270;BME280;62754;48.252;11.654;2023-07-29T09:25:47;95791.38;;;22.44;77.23
74270;BME280;62754;48.252;11.654;2023-07-29T09:28:14;95795.59;;;22.91;77.73
74270;BME280;62754;48.252;11.654;2023-07-29T09:30:46;95799.50;;;23.26;73.92
74270;BME280;62754;48.252;11.654;2023-07-29T09:33:14;95799.22;;;23.54;69.18
74270;BME280;62754;48.252;11.654;2023-07-29T09:35:41;95792.91;;;23.62;69.52
74270;BME280;62754;48.252;11.654;2023-07-29T09:38:07;95790.53;;;23.41;69.69
74270;BME280;62754;48.252;11.654;2023-07-29T09:40:42;95789.09;;;23.58;69.40
74270;BME280;62754;48.252;11.654;2023-07-29T09:43:09;95786.50;;;23.83;66.43
74270;BME280;62754;48.252;11.654;2023-07-29T09:45:36;95790.47;;;23.67;67.12
74270;BME280;62754;48.252;11.654;2023-07-29T09:48:05;95789.81;;;24.03;65.47
74270;BME280;62754;48.252;11.654;2023-07-29T09:50:31;95785.03;;;24.25;63.36
74270;BME280;62754;48.252;11.654;2023-07-29T09:53:01;95787.16;;;24.09;62.73
74270;BME280;62754;48.252;11.654;2023-07-29T09:55:27;95784.41;;;23.91;64.09
74270;BME280;62754;48.252;11.654;2023-07-29T09:57:57;95794.50;;;24.01;64.75
74270;BME280;62754;48.252;11.654;2023-07-29T10:00:23;95795.81;;;23.85;64.35
74270;BME280;62754;48.252;11.654;2023-07-29T10:02:51;95792.72;;;24.94;60.19
74270;BME280;62754;48.252;11.654;2023-07-29T10:05:21;95779.63;;;25.72;58.56
74270;BME280;62754;48.252;11.654;2023-07-29T10:07:50;95783.91;;;25.54;56.25
74270;BME280;62754;48.252;11.654;2023-07-29T10:10:17;95760.88;;;25.43;57.44
74270;BME280;62754;48.252;11.654;2023-07-29T10:12:43;95768.63;;;25.56;57.82
74270;BME280;62754;48.252;11.654;2023-07-29T10:15:12;95767.13;;;25.79;55.78
74270;BME280;62754;48.252;11.654;2023-07-29T10:17:39;95766.41;;;26.13;56.47
74270;BME280;62754;48.252;11.654;2023-07-29T10:20:09;95759.97;;;26.09;54.79
74270;BME280;62754;48.252;11.654;2023-07-29T10:22:42;95751.06;;;25.92;54.90
74270;BME280;62754;48.252;11.654;2023-07-29T10:25:33;95742.38;;;27.08;51.86
74270;BME280;62754;48.252;11.654;2023-07-29T10:28:06;95744.22;;;26.02;55.33
